createdAt,value
2022-11-18T00:00:49.643Z,12.20
2022-11-18T00:08:55.705Z,12.20
2022-11-18T00:17:06.331Z,11.80
2022-11-18T00:25:12.432Z,12.00
2022-11-18T00:33:20.468Z,12.20
2022-11-18T00:41:45.831Z,12.10
2022-11-18T00:49:54.070Z,12.40
2022-11-18T00:57:59.667Z,12.20
2022-11-18T01:06:07.795Z,12.50
2022-11-18T01:14:13.226Z,12.40
2022-11-18T01:22:21.327Z,12.80
2022-11-18T01:30:27.167Z,12.90
2022-11-18T01:38:35.319Z,12.90
2022-11-18T01:46:40.763Z,13.00
2022-11-18T01:54:53.740Z,12.40
2022-11-18T02:03:00.493Z,12.60
2022-11-18T02:11:32.368Z,12.60
2022-11-18T02:20:19.573Z,12.70
2022-11-18T02:28:40.007Z,12.80
2022-11-18T02:36:54.911Z,12.90
2022-11-18T02:45:04.997Z,12.80
2022-11-18T02:53:16.648Z,12.60
2022-11-18T03:01:24.349Z,12.50
2022-11-18T03:09:36.204Z,12.20
2022-11-18T03:17:53.143Z,12.40
2022-11-18T03:26:05.635Z,12.50
2022-11-18T03:34:16.459Z,12.50
2022-11-18T03:42:31.284Z,12.60
2022-11-18T03:50:41.110Z,12.50
2022-11-18T03:58:54.437Z,12.60
2022-11-18T04:07:07.152Z,12.50
2022-11-18T04:15:16.244Z,12.50
2022-11-18T04:23:21.776Z,12.70
2022-11-18T04:31:30.072Z,12.70
2022-11-18T04:39:35.475Z,12.10
2022-11-18T04:47:43.451Z,11.90
2022-11-18T04:55:48.867Z,12.20
2022-11-18T05:03:57.159Z,12.40
2022-11-18T05:12:14.971Z,12.50
2022-11-18T05:20:23.320Z,12.40
2022-11-18T05:28:28.751Z,12.20
2022-11-18T05:36:36.868Z,11.70
2022-11-18T05:44:42.272Z,11.50
2022-11-18T05:52:57.258Z,11.50
2022-11-18T06:01:08.579Z,11.40
2022-11-18T06:09:19.908Z,11.50
2022-11-18T06:17:31.107Z,11.60
2022-11-18T06:25:41.530Z,11.80
2022-11-18T06:33:46.906Z,12.10
2022-11-18T06:41:56.201Z,12.40
2022-11-18T06:50:02.031Z,12.50
2022-11-18T06:58:09.975Z,11.90
2022-11-18T07:06:17.143Z,12.10
2022-11-18T07:14:25.383Z,12.10
2022-11-18T07:22:30.779Z,11.80
2022-11-18T07:30:38.759Z,11.70
2022-11-18T07:38:44.486Z,11.90
2022-11-18T07:46:52.449Z,12.40
2022-11-18T07:54:57.761Z,12.50
2022-11-18T08:03:06.712Z,13.10
2022-11-18T08:11:20.422Z,13.50
2022-11-18T08:19:30.119Z,13.50
2022-11-18T08:27:35.757Z,13.90
2022-11-18T08:35:43.725Z,14.90
2022-11-18T08:43:49.271Z,15.30
2022-11-18T08:51:57.686Z,15.70
2022-11-18T09:00:03.116Z,14.70
2022-11-18T09:08:11.271Z,15.40
2022-11-18T09:16:16.826Z,17.80
2022-11-18T09:24:25.020Z,20.10
2022-11-18T09:32:30.421Z,20.90
2022-11-18T09:40:56.162Z,20.00
2022-11-18T09:49:18.030Z,18.80
2022-11-18T09:57:28.992Z,17.60
2022-11-18T10:05:36.571Z,16.00
2022-11-18T10:13:56.079Z,15.70
2022-11-18T10:22:22.701Z,15.50
2022-11-18T10:30:33.947Z,15.40
2022-11-18T10:38:39.385Z,15.70
2022-11-18T10:46:47.408Z,15.70
2022-11-18T10:55:12.726Z,15.70
2022-11-18T11:03:35.153Z,16.20
2022-11-18T11:11:43.753Z,16.60
2022-11-18T11:20:04.871Z,16.90
2022-11-18T11:28:17.810Z,16.40
2022-11-18T11:36:41.945Z,16.70
2022-11-18T11:45:01.722Z,17.00
2022-11-18T11:53:20.641Z,17.40
2022-11-18T12:01:34.297Z,17.30
2022-11-18T12:09:54.876Z,17.10
2022-11-18T12:18:09.124Z,17.50
2022-11-18T12:26:37.334Z,17.50
2022-11-18T12:34:43.578Z,17.10
2022-11-18T12:43:19.008Z,17.30
2022-11-18T12:51:51.214Z,16.90
2022-11-18T12:59:59.656Z,17.10
2022-11-18T13:08:17.272Z,17.30
2022-11-18T13:16:40.155Z,16.90
2022-11-18T13:24:51.111Z,15.90
2022-11-18T13:33:02.608Z,15.30
2022-11-18T13:41:23.297Z,14.90
2022-11-18T13:49:49.903Z,14.60
2022-11-18T13:58:00.148Z,14.60
2022-11-18T14:06:08.386Z,14.80
2022-11-18T14:14:14.846Z,15.30
2022-11-18T14:22:25.105Z,15.20
2022-11-18T14:30:34.834Z,15.30
2022-11-18T14:39:25.332Z,15.00
2022-11-18T14:47:23.864Z,14.90
2022-11-18T14:55:31.965Z,14.60
2022-11-18T15:03:37.255Z,14.60
2022-11-18T15:11:45.475Z,14.80
2022-11-18T15:19:50.896Z,14.50
2022-11-18T15:27:59.027Z,13.90
2022-11-18T15:36:04.368Z,14.20
2022-11-18T15:44:13.918Z,14.20
2022-11-18T15:52:19.262Z,14.40
2022-11-18T16:00:27.211Z,14.80
2022-11-18T16:08:33.318Z,15.00
2022-11-18T16:16:42.924Z,14.90
2022-11-18T16:24:48.559Z,14.30
2022-11-18T16:32:57.666Z,14.40
2022-11-18T16:41:23.544Z,14.70
2022-11-18T16:49:31.711Z,15.00
2022-11-18T16:57:38.376Z,14.80
2022-11-18T17:05:46.480Z,14.80
2022-11-18T17:13:56.459Z,15.00
2022-11-18T17:22:05.909Z,15.30
2022-11-18T17:30:12.812Z,15.30
2022-11-18T17:38:20.825Z,15.40
2022-11-18T17:46:26.209Z,15.60
2022-11-18T17:54:34.153Z,15.60
2022-11-18T18:02:40.557Z,15.30
2022-11-18T18:10:48.655Z,15.80
2022-11-18T18:18:54.615Z,16.00
2022-11-18T18:27:02.941Z,15.70
2022-11-18T18:35:09.382Z,15.70
2022-11-18T18:43:17.298Z,15.60
2022-11-18T18:51:22.695Z,15.20
2022-11-18T18:59:31.138Z,15.00
2022-11-18T19:07:36.652Z,15.00
2022-11-18T19:15:45.487Z,14.80
2022-11-18T19:23:51.002Z,15.10
2022-11-18T19:32:00.450Z,15.30
2022-11-18T19:40:09.178Z,15.30
2022-11-18T19:48:18.829Z,15.30
2022-11-18T19:56:25.001Z,15.50
2022-11-18T20:04:33.052Z,15.60
2022-11-18T20:12:38.550Z,15.60
2022-11-18T20:20:46.637Z,15.40
2022-11-18T20:28:57.175Z,15.10
2022-11-18T20:37:05.742Z,15.30
2022-11-18T20:45:12.579Z,15.30
2022-11-18T20:53:22.325Z,15.30
2022-11-18T21:01:29.487Z,15.40
2022-11-18T21:09:37.529Z,15.30
2022-11-18T21:17:43.008Z,15.20
2022-11-18T21:25:50.957Z,15.10
2022-11-18T21:33:57.386Z,15.10
2022-11-18T21:42:05.492Z,15.10
2022-11-18T21:50:11.702Z,15.20
2022-11-18T21:58:19.708Z,15.10
2022-11-18T22:06:26.007Z,14.90
2022-11-18T22:14:33.972Z,15.10
2022-11-18T22:22:39.413Z,15.20
2022-11-18T22:30:48.089Z,15.20
2022-11-18T22:38:53.832Z,15.20
2022-11-18T22:47:04.746Z,15.10
2022-11-18T22:55:10.817Z,15.10
2022-11-18T23:03:18.730Z,15.30
2022-11-18T23:11:36.581Z,15.30
2022-11-18T23:19:45.688Z,15.20
2022-11-18T23:27:54.168Z,15.40
2022-11-18T23:36:02.869Z,15.00
2022-11-18T23:44:08.873Z,15.20
2022-11-18T23:52:17.242Z,15.20
